Saint Petersburg, Florida
Current Conditions -  °F | °C
As of 10:53 PM on Tuesday 21 Oct 2014 (Local Time) from KSPG Reporting Station
Clear Clear  
Wind Chill: 76°   Ceiling: Unl
Heat Index: 76°   Visibility: 10mi
Dew Point: 66°   Wind: 5mph
Humidity: 71%   Direction: 360°N
Pressure: 29.95"   Gusts: NA
Location:  27.77°N, 82.63°W
Report Text: KSPG 220253Z AUTO 36004KT 10SM CLR 24/19 A2995 RMK AO2 SLP140 T02440189 51011
Loading
Personal Weather Stations






























Interactive Weather Map New forecast layout! Learn more

10-Day Weather Forecast

Advertisements
Track Severe Weather on mobile